Time;durP1;ratioP1;P1;durP2;ratioP2;P2;SDS_P1;SDS_P2;PMS_P1;PMS_P2;Temp;Humidity;BMP_temperature;BMP_pressure;BME280_temperature;BME280_humidity;BME280_pressure;Samples;Min_cycle;Max_cycle;Signal;HPM_P1;HPM_P2
2021/07/05 00:01:43;;;;;;;1.50;0.90;;;16.40;98.20;;;;;;5010649;28;20465;-83
2021/07/05 00:04:11;;;;;;;1.50;0.97;;;16.40;98.20;;;;;;5013431;28;20492;-82
2021/07/05 00:06:39;;;;;;;1.50;1.00;;;16.40;98.20;;;;;;5014214;28;20880;-84
2021/07/05 00:09:06;;;;;;;1.57;1.00;;;16.40;98.20;;;;;;5011179;28;20460;-82
2021/07/05 00:11:34;;;;;;;1.57;1.00;;;16.40;98.20;;;;;;5010233;28;21693;-84
2021/07/05 00:14:01;;;;;;;1.50;0.90;;;16.40;98.20;;;;;;5013424;28;20484;-82
2021/07/05 00:16:27;;;;;;;1.50;0.90;;;16.40;98.20;;;;;;5008970;28;20484;-83
2021/07/05 00:18:54;;;;;;;1.50;1.00;;;16.40;98.20;;;;;;5011315;28;20461;-82
2021/07/05 00:21:21;;;;;;;1.50;0.90;;;16.40;98.20;;;;;;5010901;28;20471;-83
2021/07/05 00:23:49;;;;;;;1.53;1.10;;;16.40;98.20;;;;;;5011118;28;20495;-83
2021/07/05 00:26:16;;;;;;;1.50;1.00;;;16.40;98.20;;;;;;5012719;28;20471;-83
2021/07/05 00:28:42;;;;;;;1.50;0.90;;;16.40;98.20;;;;;;5010684;28;20476;-84
2021/07/05 00:31:09;;;;;;;1.50;1.00;;;16.40;98.20;;;;;;5011406;28;20943;-83
2021/07/05 00:33:36;;;;;;;1.50;1.00;;;16.30;98.20;;;;;;5012782;28;20844;-83
2021/07/05 00:36:03;;;;;;;1.50;1.00;;;16.30;98.20;;;;;;5012522;28;20579;-82
2021/07/05 00:38:31;;;;;;;1.50;1.00;;;16.40;98.20;;;;;;5010162;28;20460;-82
2021/07/05 00:40:59;;;;;;;1.50;1.00;;;16.30;98.20;;;;;;5012562;28;20464;-82
2021/07/05 00:43:26;;;;;;;1.50;1.00;;;16.30;98.20;;;;;;5010147;28;20475;-81
2021/07/05 00:45:53;;;;;;;1.50;1.00;;;16.30;98.20;;;;;;5011369;28;20491;-83
2021/07/05 00:48:20;;;;;;;1.50;1.00;;;16.30;98.20;;;;;;5010831;28;20476;-81
2021/07/05 00:50:46;;;;;;;1.50;1.00;;;16.30;98.20;;;;;;5012005;28;20815;-83
2021/07/05 00:53:14;;;;;;;1.50;0.90;;;16.30;98.20;;;;;;5013337;28;20467;-83
2021/07/05 00:55:41;;;;;;;1.50;0.97;;;16.20;98.20;;;;;;5011010;28;20492;-82
2021/07/05 00:58:09;;;;;;;1.50;1.00;;;16.20;98.20;;;;;;5012779;28;20616;-81
2021/07/05 01:00:36;;;;;;;1.50;0.90;;;16.20;98.20;;;;;;5012014;28;20470;-83
2021/07/05 01:03:04;;;;;;;1.50;1.00;;;16.20;98.20;;;;;;5012574;28;20468;-80
2021/07/05 01:05:31;;;;;;;1.50;1.00;;;16.20;98.20;;;;;;5011407;28;20496;-80
2021/07/05 01:07:58;;;;;;;1.50;0.90;;;16.20;98.20;;;;;;5006548;28;20948;-81
2021/07/05 01:10:25;;;;;;;1.50;1.00;;;16.20;98.20;;;;;;5008119;28;20465;-82
2021/07/05 01:12:53;;;;;;;1.50;1.00;;;16.20;98.20;;;;;;5011658;28;20460;-81
2021/07/05 01:15:24;;;;;;;1.50;1.00;;;16.20;98.20;;;;;;5011406;28;20499;-81
2021/07/05 01:17:53;;;;;;;1.50;0.90;;;16.20;98.20;;;;;;5007538;28;20483;-83
2021/07/05 01:20:22;;;;;;;1.50;1.03;;;16.20;98.20;;;;;;5011540;28;20468;-83
2021/07/05 01:22:51;;;;;;;1.50;1.00;;;16.20;98.20;;;;;;5012871;28;20832;-83
2021/07/05 01:25:21;;;;;;;1.50;0.90;;;16.30;98.20;;;;;;5011410;28;20492;-82
2021/07/05 01:27:48;;;;;;;1.50;1.00;;;16.30;98.20;;;;;;5016151;28;20456;-80
2021/07/05 01:30:17;;;;;;;1.50;0.90;;;16.30;98.20;;;;;;5015507;28;20543;-82
2021/07/05 01:32:45;;;;;;;1.50;1.00;;;16.40;98.20;;;;;;5016137;28;20468;-80
2021/07/05 01:35:14;;;;;;;1.50;1.00;;;16.40;98.20;;;;;;5013875;28;20490;-83
2021/07/05 01:37:41;;;;;;;1.50;1.00;;;16.40;98.20;;;;;;5013076;28;20491;-82
2021/07/05 01:40:14;;;;;;;1.50;1.00;;;16.50;98.20;;;;;;5013840;28;20465;-83
2021/07/05 01:42:41;;;;;;;1.50;1.00;;;16.50;98.20;;;;;;5009773;28;20526;-82
2021/07/05 01:45:09;;;;;;;1.50;0.97;;;16.50;98.20;;;;;;5013602;28;20507;-80
2021/07/05 01:47:36;;;;;;;1.50;1.00;;;16.50;98.20;;;;;;5013459;28;20464;-79
2021/07/05 01:50:04;;;;;;;1.50;1.00;;;16.50;98.20;;;;;;5011307;28;20464;-81
2021/07/05 01:52:30;;;;;;;1.50;0.90;;;16.50;98.20;;;;;;5013776;28;20939;-82
2021/07/05 01:54:57;;;;;;;1.50;1.00;;;16.50;98.20;;;;;;5015162;28;20484;-83
2021/07/05 01:57:25;;;;;;;1.50;1.00;;;16.50;98.20;;;;;;5003361;28;20876;-82
2021/07/05 01:59:54;;;;;;;1.50;1.07;;;16.60;98.20;;;;;;5011155;28;20499;-81
2021/07/05 02:02:21;;;;;;;1.50;1.00;;;16.60;98.20;;;;;;5012885;28;20464;-82
2021/07/05 02:04:48;;;;;;;1.53;1.00;;;16.60;98.20;;;;;;5015117;28;20877;-84
2021/07/05 02:07:15;;;;;;;1.50;1.00;;;16.60;98.20;;;;;;5014119;28;20459;-80
2021/07/05 02:09:42;;;;;;;1.50;0.97;;;16.60;98.20;;;;;;5011642;28;20464;-82
2021/07/05 02:12:10;;;;;;;1.50;0.93;;;16.60;98.20;;;;;;5015547;28;20464;-84
2021/07/05 02:14:38;;;;;;;1.50;1.00;;;16.60;98.20;;;;;;5015635;28;20495;-82
2021/07/05 02:17:06;;;;;;;1.50;1.00;;;16.60;98.20;;;;;;5010649;28;20483;-81
2021/07/05 02:19:33;;;;;;;1.50;1.00;;;16.60;98.20;;;;;;5011491;28;20471;-82
2021/07/05 02:21:59;;;;;;;1.50;1.00;;;16.60;98.20;;;;;;5015020;28;20845;-83
2021/07/05 02:24:27;;;;;;;1.50;1.00;;;16.60;98.20;;;;;;5013572;28;20480;-81
2021/07/05 02:26:54;;;;;;;1.50;0.90;;;16.60;98.20;;;;;;5010447;28;20917;-81
2021/07/05 02:29:20;;;;;;;1.50;1.00;;;16.60;98.20;;;;;;5013628;28;20483;-82
2021/07/05 02:31:48;;;;;;;1.50;0.90;;;16.60;98.20;;;;;;5014960;28;20468;-83
2021/07/05 02:34:15;;;;;;;1.50;1.00;;;16.60;98.20;;;;;;5005021;28;20487;-80
2021/07/05 02:36:42;;;;;;;1.50;0.90;;;16.60;98.20;;;;;;5006546;28;20489;-81
2021/07/05 02:39:10;;;;;;;1.50;1.00;;;16.60;98.20;;;;;;5011663;28;20460;-82
2021/07/05 02:41:37;;;;;;;1.50;0.97;;;16.60;98.20;;;;;;5005505;28;20488;-81
2021/07/05 02:44:04;;;;;;;1.50;1.00;;;16.60;98.20;;;;;;5010984;28;20495;-81
2021/07/05 02:46:31;;;;;;;1.50;1.00;;;16.70;98.20;;;;;;5011455;28;20471;-82
2021/07/05 02:48:59;;;;;;;1.50;1.00;;;16.70;98.20;;;;;;5013311;28;20479;-83
2021/07/05 02:51:26;;;;;;;1.50;1.00;;;16.70;98.20;;;;;;5013710;28;20465;-82
2021/07/05 02:53:53;;;;;;;1.50;1.00;;;16.70;98.20;;;;;;5015064;28;20491;-82
2021/07/05 02:56:19;;;;;;;1.50;1.00;;;16.70;98.20;;;;;;5014161;28;20563;-84
2021/07/05 02:58:46;;;;;;;1.50;0.90;;;16.80;98.20;;;;;;5013898;28;20464;-81
2021/07/05 03:01:13;;;;;;;1.50;1.00;;;16.80;98.20;;;;;;5013662;28;20668;-82
2021/07/05 03:03:40;;;;;;;1.50;0.90;;;16.80;98.20;;;;;;5014008;28;20468;-83
2021/07/05 03:06:10;;;;;;;1.50;0.93;;;16.80;98.20;;;;;;5015822;28;20460;-83
2021/07/05 03:08:37;;;;;;;1.50;1.00;;;16.80;98.20;;;;;;5013858;28;20504;-81
2021/07/05 03:11:07;;;;;;;1.50;0.90;;;16.80;98.20;;;;;;5014482;28;20531;-82
2021/07/05 03:13:34;;;;;;;1.50;1.00;;;16.80;98.20;;;;;;5014770;28;20464;-81
2021/07/05 03:16:00;;;;;;;1.50;0.90;;;16.80;98.20;;;;;;5014861;28;20468;-79
2021/07/05 03:18:27;;;;;;;1.50;0.97;;;16.80;98.20;;;;;;5009651;28;20496;-79
2021/07/05 03:20:54;;;;;;;1.50;0.97;;;16.80;98.20;;;;;;5007832;28;20467;-79
2021/07/05 03:23:25;;;;;;;1.50;1.00;;;16.90;98.20;;;;;;5011562;28;20464;-78
2021/07/05 03:25:52;;;;;;;1.50;0.90;;;16.90;98.20;;;;;;5009666;28;20495;-79
2021/07/05 03:28:19;;;;;;;1.50;0.90;;;16.90;98.20;;;;;;5012351;28;20460;-78
2021/07/05 03:30:48;;;;;;;1.50;1.00;;;16.90;98.20;;;;;;5008591;28;20470;-79
2021/07/05 03:33:15;;;;;;;1.50;1.00;;;16.90;98.20;;;;;;5012620;28;20456;-79
2021/07/05 03:35:42;;;;;;;1.50;1.00;;;16.90;98.20;;;;;;5004882;28;20485;-78
2021/07/05 03:38:09;;;;;;;1.50;1.00;;;17.00;98.20;;;;;;5008494;28;20484;-79
2021/07/05 03:40:41;;;;;;;1.50;0.90;;;17.00;98.20;;;;;;5011543;28;20464;-78
2021/07/05 03:43:08;;;;;;;1.50;1.00;;;17.00;98.20;;;;;;5011429;28;20948;-78
2021/07/05 03:45:38;;;;;;;1.50;1.00;;;17.00;98.20;;;;;;5011683;28;20484;-78
2021/07/05 03:48:06;;;;;;;1.50;1.00;;;17.00;98.20;;;;;;5011387;28;20943;-78
2021/07/05 03:50:34;;;;;;;1.50;1.00;;;17.10;98.20;;;;;;5009955;28;20475;-78
2021/07/05 03:53:00;;;;;;;1.50;1.00;;;17.10;98.20;;;;;;5008966;28;20496;-78
2021/07/05 03:55:29;;;;;;;1.50;1.00;;;17.10;98.20;;;;;;5011723;28;20484;-77
2021/07/05 03:57:59;;;;;;;1.50;1.00;;;17.10;98.20;;;;;;5014243;28;20551;-78
2021/07/05 04:00:28;;;;;;;1.50;0.90;;;17.10;98.20;;;;;;5020313;28;20475;-79
2021/07/05 04:02:55;;;;;;;1.50;0.93;;;17.10;98.20;;;;;;5018926;28;20467;-84
2021/07/05 04:05:22;;;;;;;1.50;1.00;;;17.10;98.20;;;;;;5010603;28;20514;-82
2021/07/05 04:07:49;;;;;;;1.50;1.00;;;17.00;98.20;;;;;;5010665;28;20467;-80
2021/07/05 04:10:17;;;;;;;1.50;1.00;;;17.00;98.20;;;;;;5014143;28;20484;-81
2021/07/05 04:12:44;;;;;;;1.50;1.00;;;16.90;98.20;;;;;;5013738;28;20833;-85
2021/07/05 04:15:13;;;;;;;1.50;1.00;;;16.90;98.20;;;;;;5015915;28;20494;-82
2021/07/05 04:17:40;;;;;;;1.50;1.00;;;16.80;98.20;;;;;;5017743;28;20484;-81
2021/07/05 04:20:10;;;;;;;1.50;0.90;;;16.80;98.20;;;;;;5017546;28;20869;-81
2021/07/05 04:22:37;;;;;;;1.50;1.00;;;16.70;98.20;;;;;;5020061;28;20801;-83
2021/07/05 04:25:06;;;;;;;1.50;0.97;;;16.60;98.20;;;;;;5018768;28;20500;-84
2021/07/05 04:27:33;;;;;;;1.50;0.90;;;16.60;98.20;;;;;;5017819;28;20463;-80
2021/07/05 04:30:00;;;;;;;1.50;0.90;;;16.50;98.20;;;;;;5018161;28;20468;-81
2021/07/05 04:32:28;;;;;;;1.50;1.00;;;16.40;98.20;;;;;;5014042;28;20471;-83
2021/07/05 04:34:56;;;;;;;1.50;1.00;;;16.40;98.20;;;;;;5015930;28;20487;-83
2021/07/05 04:37:23;;;;;;;1.50;1.00;;;16.30;98.20;;;;;;5015609;28;20520;-83
2021/07/05 04:39:50;;;;;;;1.50;1.00;;;16.30;98.20;;;;;;5014853;28;20571;-83
2021/07/05 04:42:17;;;;;;;1.50;1.00;;;16.20;98.20;;;;;;5011674;28;20498;-83
2021/07/05 04:44:45;;;;;;;1.50;1.00;;;16.20;98.20;;;;;;5011110;28;20480;-83
2021/07/05 04:47:12;;;;;;;1.50;1.00;;;16.10;98.20;;;;;;5016196;28;20474;-82
2021/07/05 04:49:40;;;;;;;1.50;1.00;;;16.10;98.20;;;;;;5012793;28;20503;-80
2021/07/05 04:52:07;;;;;;;1.50;1.00;;;16.10;98.20;;;;;;5006027;28;20479;-82
2021/07/05 04:54:34;;;;;;;1.50;1.00;;;16.00;98.20;;;;;;5011528;28;20539;-81
2021/07/05 04:57:01;;;;;;;1.50;1.00;;;16.00;98.20;;;;;;5012495;28;20464;-80
2021/07/05 04:59:27;;;;;;;1.50;1.00;;;16.00;98.20;;;;;;5014992;28;20475;-83
2021/07/05 05:01:54;;;;;;;1.50;0.97;;;16.00;98.20;;;;;;5007843;28;20474;-82
2021/07/05 05:04:21;;;;;;;1.50;1.00;;;16.00;98.20;;;;;;5010685;28;20855;-83
2021/07/05 05:06:50;;;;;;;1.53;1.00;;;16.00;98.20;;;;;;5008969;28;20475;-83
2021/07/05 05:09:17;;;;;;;1.50;0.90;;;16.00;98.20;;;;;;5004900;28;20494;-87
2021/07/05 05:11:44;;;;;;;1.50;1.00;;;16.10;98.20;;;;;;5005558;28;20939;-84
2021/07/05 05:14:13;;;;;;;1.50;1.00;;;16.10;98.20;;;;;;5008135;28;20499;-85
2021/07/05 05:22:33;;;;;;;1.53;1.00;;;16.20;98.20;;;;;;4999932;28;20452;-83
2021/07/05 05:25:02;;;;;;;1.50;1.00;;;16.20;98.20;;;;;;5006176;28;20563;-86
2021/07/05 05:27:32;;;;;;;1.50;1.00;;;16.20;98.20;;;;;;5011172;28;20818;-85
2021/07/05 05:30:02;;;;;;;1.50;1.00;;;16.20;98.20;;;;;;5011377;28;20467;-85
2021/07/05 05:33:07;;;;;;;1.50;1.00;;;16.20;98.20;;;;;;5008283;28;21128;-86
2021/07/05 05:35:37;;;;;;;1.50;1.00;;;16.20;98.20;;;;;;5003111;28;20483;-86
2021/07/05 05:38:07;;;;;;;1.57;1.00;;;16.20;98.20;;;;;;5002265;28;20575;-85
2021/07/05 05:40:40;;;;;;;1.50;1.00;;;16.30;98.20;;;;;;5011606;28;20540;-85
2021/07/05 05:43:08;;;;;;;1.50;1.00;;;16.30;98.20;;;;;;5004431;28;20826;-86
2021/07/05 05:45:39;;;;;;;1.50;0.90;;;16.30;98.20;;;;;;5007083;28;20488;-86
2021/07/05 05:48:11;;;;;;;1.50;1.00;;;16.40;98.20;;;;;;5000018;28;20461;-87
2021/07/05 05:50:38;;;;;;;1.50;1.00;;;16.40;98.20;;;;;;5009988;28;20993;-85
2021/07/05 05:53:24;;;;;;;1.50;1.00;;;16.50;98.20;;;;;;5008123;28;21090;-84
2021/07/05 05:55:58;;;;;;;1.50;1.00;;;16.50;98.20;;;;;;5004614;28;20490;-85
2021/07/05 05:58:28;;;;;;;1.50;1.00;;;16.50;98.20;;;;;;5011269;28;20553;-86
2021/07/05 06:01:05;;;;;;;1.50;1.00;;;16.60;98.20;;;;;;5013453;28;21023;-85
2021/07/05 06:04:03;;;;;;;1.50;1.00;;;16.60;98.20;;;;;;5011884;28;20841;-86
2021/07/05 06:06:38;;;;;;;1.50;1.00;;;16.70;98.20;;;;;;5011337;28;20460;-87
2021/07/05 06:09:06;;;;;;;1.50;1.00;;;16.70;98.20;;;;;;5011447;28;20451;-85
2021/07/05 06:11:37;;;;;;;1.50;1.00;;;16.80;98.20;;;;;;5013961;28;20528;-86
2021/07/05 06:14:04;;;;;;;1.50;0.90;;;16.90;98.20;;;;;;5014520;28;20570;-86
2021/07/05 06:16:31;;;;;;;1.50;0.90;;;16.90;98.20;;;;;;5016329;28;20541;-86
2021/07/05 06:18:58;;;;;;;1.53;0.93;;;17.00;98.20;;;;;;5010466;28;20567;-86
2021/07/05 06:21:26;;;;;;;1.50;1.00;;;17.00;98.20;;;;;;5014402;28;20456;-86
2021/07/05 06:23:56;;;;;;;1.50;1.00;;;17.10;98.20;;;;;;5017005;28;20478;-85
2021/07/05 06:26:28;;;;;;;1.53;1.00;;;17.20;98.20;;;;;;5017633;28;20467;-85
2021/07/05 06:28:55;;;;;;;1.53;1.00;;;17.30;98.20;;;;;;5016606;28;20452;-84
2021/07/05 06:31:21;;;;;;;1.57;0.90;;;17.30;98.20;;;;;;5013864;28;20556;-84
2021/07/05 06:33:48;;;;;;;1.50;0.93;;;17.40;98.20;;;;;;5012080;28;20486;-84
2021/07/05 06:36:22;;;;;;;1.50;0.90;;;17.50;98.20;;;;;;5016282;28;20869;-84
2021/07/05 06:38:49;;;;;;;1.53;1.00;;;17.50;98.20;;;;;;5011263;28;20495;-84
2021/07/05 06:41:15;;;;;;;1.50;1.00;;;17.60;98.20;;;;;;5012168;28;20518;-83
2021/07/05 06:43:49;;;;;;;1.50;1.00;;;17.60;98.20;;;;;;5011446;28;20479;-81
2021/07/05 06:46:16;;;;;;;1.53;1.00;;;17.70;98.20;;;;;;5013011;28;20511;-83
2021/07/05 06:48:43;;;;;;;1.50;1.00;;;17.70;98.20;;;;;;5013444;28;20457;-83
2021/07/05 06:51:12;;;;;;;1.50;0.93;;;17.80;98.20;;;;;;5008270;28;20962;-83
2021/07/05 06:53:43;;;;;;;1.50;0.90;;;17.80;98.20;;;;;;5012300;28;20464;-82
2021/07/05 06:56:10;;;;;;;1.50;1.00;;;17.90;98.20;;;;;;5014418;28;20492;-82
2021/07/05 06:58:38;;;;;;;1.53;0.90;;;18.00;98.20;;;;;;5014381;28;20492;-82
2021/07/05 07:01:07;;;;;;;1.50;0.90;;;18.10;98.20;;;;;;5013199;28;20468;-82
2021/07/05 07:03:34;;;;;;;1.50;1.00;;;18.30;98.20;;;;;;5009714;28;20469;-82
2021/07/05 07:06:08;;;;;;;1.53;0.90;;;18.50;98.20;;;;;;5005514;28;20492;-81
2021/07/05 07:11:33;;;;;;;1.53;1.00;;;18.90;98.20;;;;;;5023826;28;20464;-78
2021/07/05 07:14:13;;;;;;;1.57;0.90;;;19.10;98.20;;;;;;5020895;28;20480;-83
2021/07/05 07:16:53;;;;;;;1.50;0.90;;;19.30;98.20;;;;;;5026254;28;21002;-78
2021/07/05 07:19:33;;;;;;;1.57;0.90;;;19.40;98.20;;;;;;5024903;28;20487;-78
2021/07/05 07:22:11;;;;;;;1.50;0.90;;;19.40;98.20;;;;;;5024364;28;20460;-84
2021/07/05 07:25:15;;;;;;;;;;;;;;;;;;;;;
2021/07/05 07:28:39;;;;;;;1.53;0.90;;;19.50;98.20;;;;;;5024360;28;20474;-80
2021/07/05 07:31:39;;;;;;;1.50;0.90;;;19.50;98.20;;;;;;5000639;28;20457;-79
2021/07/05 07:34:39;;;;;;;1.50;0.93;;;19.50;98.20;;;;;;5022568;28;20500;-81
2021/07/05 07:37:31;;;;;;;1.50;1.00;;;19.50;98.20;;;;;;5026090;28;20456;-79
2021/07/05 07:43:41;;;;;;;1.50;0.90;;;19.60;98.20;;;;;;4999022;28;20468;-81
2021/07/05 07:46:35;;;;;;;1.50;0.90;;;19.70;98.20;;;;;;5026418;28;20483;-80
2021/07/05 07:49:15;;;;;;;1.50;0.90;;;19.70;98.20;;;;;;5025680;28;20483;-84
2021/07/05 07:55:25;;;;;;;1.53;0.90;;;20.00;98.20;;;;;;5001243;28;20488;-80
2021/07/05 08:04:02;;;;;;;1.50;1.00;;;20.50;98.20;;;;;;5022806;28;20882;-78
2021/07/05 08:09:19;;;;;;;1.53;0.93;;;20.80;98.20;;;;;;5007206;28;20476;-77
2021/07/05 08:18:55;;;;;;;1.53;1.00;;;21.10;98.10;;;;;;4974194;28;20505;-79
2021/07/05 08:41:12;;;;;;;1.50;0.90;;;21.30;96.60;;;;;;4975298;28;20452;-80
2021/07/05 08:44:22;;;;;;;1.50;0.90;;;21.40;96.70;;;;;;5013241;28;20464;-81
2021/07/05 08:47:26;;;;;;;1.50;0.90;;;21.50;95.90;;;;;;5015078;28;20526;-81
2021/07/05 08:50:04;;;;;;;1.50;1.00;;;21.50;95.30;;;;;;5013462;28;20496;-79
2021/07/05 08:52:54;;;;;;;1.60;1.03;;;21.40;94.60;;;;;;5020176;28;20524;-80
2021/07/05 08:59:26;;;;;;;1.50;0.90;;;21.30;94.70;;;;;;4981329;28;20494;-82
2021/07/05 09:09:31;;;;;;;;;;;;;;;;;;;;;
2021/07/05 09:42:57;;;;;;;1.50;0.90;;;21.70;92.00;;;;;;4911285;28;20592;-78
2021/07/05 09:46:11;;;;;;;;;;;;;;;;;;;;;
2021/07/05 09:52:31;;;;;;;1.50;0.90;;;22.60;89.40;;;;;;4870943;29;20526;-79
2021/07/05 09:55:58;;;;;;;1.53;0.90;;;22.70;89.80;;;;;;5004401;28;20520;-80
2021/07/05 10:05:07;;;;;;;1.53;0.90;;;23.10;89.10;;;;;;5019977;28;20483;-78
2021/07/05 10:07:50;;;;;;;1.50;0.90;;;23.40;86.90;;;;;;5023407;28;20467;-79
2021/07/05 10:10:38;;;;;;;1.53;0.90;;;23.50;84.60;;;;;;5023277;28;20547;-78
2021/07/05 10:16:42;;;;;;;1.50;0.90;;;23.90;86.10;;;;;;5021828;28;20468;-80
2021/07/05 10:26:13;;;;;;;1.50;0.90;;;24.20;80.20;;;;;;4859202;29;20487;-78
2021/07/05 10:29:15;;;;;;;;;;;;;;;;;;;;;
2021/07/05 10:38:35;;;;;;;1.50;0.90;;;24.40;81.80;;;;;;5008434;28;20828;-78
2021/07/05 10:51:16;;;;;;;1.50;0.90;;;24.50;80.20;;;;;;5019256;28;20459;-78
2021/07/05 10:54:37;;;;;;;1.50;0.90;;;24.50;80.90;;;;;;5012613;28;21088;-78
2021/07/05 10:57:15;;;;;;;1.50;0.90;;;24.50;79.50;;;;;;5017804;28;20460;-77
2021/07/05 11:00:13;;;;;;;1.50;0.90;;;24.60;79.20;;;;;;5013416;28;20491;-78
2021/07/05 11:06:55;;;;;;;1.50;0.90;;;24.60;80.90;;;;;;4917938;29;20508;-78
2021/07/05 11:19:31;;;;;;;1.50;0.90;;;25.00;75.80;;;;;;5012124;28;20542;-80
2021/07/05 11:22:11;;;;;;;1.50;1.10;;;24.90;75.50;;;;;;4939111;29;20471;-79
2021/07/05 11:25:21;;;;;;;1.50;0.83;;;24.80;75.50;;;;;;5017382;28;20849;-78
2021/07/05 11:31:28;;;;;;;1.50;0.80;;;24.60;76.90;;;;;;5003369;28;20459;-77
2021/07/05 11:34:00;;;;;;;1.50;1.00;;;24.60;75.90;;;;;;5021773;22;20491;-76
2021/07/05 11:36:32;;;;;;;1.50;0.90;;;24.60;76.50;;;;;;5028668;28;20466;-78
2021/07/05 11:39:18;;;;;;;1.50;0.90;;;24.60;78.70;;;;;;5029551;28;20541;-78
2021/07/05 11:42:04;;;;;;;1.50;0.80;;;24.60;77.40;;;;;;5032444;28;20489;-77
2021/07/05 11:44:53;;;;;;;1.50;0.90;;;24.60;76.60;;;;;;5025166;28;20491;-78
2021/07/05 11:47:57;;;;;;;1.50;0.90;;;24.60;76.60;;;;;;5018826;28;20517;-78
2021/07/05 11:50:56;;;;;;;1.50;0.90;;;24.60;76.10;;;;;;5021142;28;20454;-77
2021/07/05 11:53:34;;;;;;;1.50;0.80;;;24.50;76.10;;;;;;5012755;28;20467;-77
2021/07/05 11:59:06;;;;;;;1.50;0.90;;;24.30;78.60;;;;;;5017683;28;20474;-77
2021/07/05 12:01:34;;;;;;;1.50;0.90;;;24.20;78.00;;;;;;5024902;28;20471;-78
2021/07/05 12:04:35;;;;;;;1.50;0.90;;;24.20;78.90;;;;;;5015760;28;20851;-80
2021/07/05 12:10:16;;;;;;;1.47;0.83;;;23.90;80.00;;;;;;5018887;28;20454;-76
2021/07/05 12:12:59;;;;;;;1.50;0.90;;;23.80;80.40;;;;;;5021445;28;20663;-78
2021/07/05 12:15:44;;;;;;;1.50;0.90;;;23.70;81.50;;;;;;5015199;28;20485;-78
2021/07/05 12:18:28;;;;;;;1.50;0.90;;;23.60;80.80;;;;;;5018155;28;20908;-78
2021/07/05 12:24:38;;;;;;;1.50;0.80;;;23.50;82.70;;;;;;5085823;23;21834;-78
2021/07/05 12:27:12;;;;;;;1.50;0.90;;;23.50;81.10;;;;;;5021879;28;20475;-77
2021/07/05 12:30:04;;;;;;;1.50;0.90;;;23.40;83.00;;;;;;5013920;28;20472;-77
2021/07/05 12:32:54;;;;;;;1.50;0.90;;;23.20;83.10;;;;;;5028466;28;20455;-78
2021/07/05 12:35:36;;;;;;;1.50;0.90;;;23.10;82.80;;;;;;5024374;28;20521;-78
2021/07/05 12:38:36;;;;;;;1.50;0.90;;;23.00;83.10;;;;;;5023994;28;20502;-78
2021/07/05 12:41:48;;;;;;;1.50;0.90;;;22.90;82.60;;;;;;5026148;28;20491;-78
2021/07/05 12:50:06;;;;;;;1.50;0.90;;;22.90;84.90;;;;;;5018412;28;20452;-78
2021/07/05 12:53:19;;;;;;;1.50;0.90;;;22.80;83.60;;;;;;5021765;28;20527;-78
2021/07/05 12:56:06;;;;;;;1.50;0.90;;;22.70;84.20;;;;;;5026791;28;20478;-77
2021/07/05 12:59:03;;;;;;;1.50;0.90;;;22.60;84.70;;;;;;5026431;28;20487;-78
2021/07/05 13:01:45;;;;;;;1.50;0.90;;;22.40;85.60;;;;;;5023480;28;20467;-78
2021/07/05 13:04:31;;;;;;;1.50;0.90;;;22.40;86.90;;;;;;5024321;28;20517;-78
2021/07/05 13:10:20;;;;;;;1.50;0.90;;;22.30;85.80;;;;;;5003837;28;20463;-78
2021/07/05 13:13:01;;;;;;;1.50;0.90;;;22.10;86.10;;;;;;5020073;28;20498;-78
2021/07/05 13:15:49;;;;;;;1.50;0.90;;;22.10;87.00;;;;;;5027771;28;20494;-78
2021/07/05 13:18:28;;;;;;;1.50;1.00;;;21.90;87.30;;;;;;5022125;28;20533;-78
2021/07/05 13:21:12;;;;;;;1.50;0.90;;;21.90;88.40;;;;;;5024982;28;20494;-75
2021/07/05 13:24:01;;;;;;;1.50;0.90;;;21.90;88.40;;;;;;5019641;28;20962;-79
2021/07/05 13:27:12;;;;;;;1.50;0.90;;;21.90;87.90;;;;;;5037169;28;20982;-78
2021/07/05 13:29:56;;;;;;;;;;;;;;;;;;;;;
2021/07/05 13:32:38;;;;;;;1.50;0.90;;;21.90;88.80;;;;;;5031618;28;20464;-78
2021/07/05 13:35:15;;;;;;;1.50;0.90;;;21.90;87.30;;;;;;5030938;28;20479;-78
2021/07/05 13:37:48;;;;;;;1.50;0.90;;;21.90;88.80;;;;;;5024347;28;20465;-76
2021/07/05 13:40:51;;;;;;;1.50;0.90;;;22.00;88.80;;;;;;5021088;28;21086;-77
2021/07/05 13:46:51;;;;;;;1.50;1.00;;;22.00;87.30;;;;;;5035540;28;20463;-79
2021/07/05 13:49:23;;;;;;;1.47;0.90;;;22.00;87.60;;;;;;4939889;28;20859;-77
2021/07/05 13:54:59;;;;;;;1.50;0.90;;;21.80;88.30;;;;;;5000798;28;20487;-78
2021/07/05 13:58:03;;;;;;;;;;;;;;;;;;;;;
2021/07/05 14:01:02;;;;;;;;;;;;;;;;;;;;;
2021/07/05 14:03:40;;;;;;;1.50;0.90;;;21.60;89.90;;;;;;5022131;28;20497;-78
2021/07/05 14:06:23;;;;;;;1.50;0.90;;;21.60;89.50;;;;;;5036799;28;20546;-79
2021/07/05 14:08:59;;;;;;;1.50;0.90;;;21.70;90.10;;;;;;5030235;28;20467;-77
2021/07/05 14:12:02;;;;;;;1.50;0.90;;;21.70;89.90;;;;;;5035573;28;20459;-79
2021/07/05 14:14:49;;;;;;;1.50;0.90;;;21.80;90.20;;;;;;5032764;28;20490;-78
2021/07/05 14:17:31;;;;;;;1.50;0.90;;;21.80;89.50;;;;;;5023091;28;20474;-78
2021/07/05 14:20:18;;;;;;;1.50;0.90;;;22.00;88.70;;;;;;5017574;28;20495;-78
2021/07/05 14:23:09;;;;;;;1.47;0.90;;;22.00;89.30;;;;;;5034661;28;20470;-79
2021/07/05 14:25:43;;;;;;;1.47;0.90;;;22.00;88.90;;;;;;5030595;28;20498;-80
2021/07/05 14:28:18;;;;;;;1.47;0.90;;;22.10;88.80;;;;;;5038707;28;20474;-79
2021/07/05 14:31:15;;;;;;;1.50;0.90;;;22.20;89.40;;;;;;5029545;28;20474;-79
2021/07/05 14:33:51;;;;;;;1.50;0.90;;;22.20;88.00;;;;;;5023257;28;20470;-81
2021/07/05 14:36:22;;;;;;;1.50;0.90;;;22.20;89.00;;;;;;5027208;28;20466;-78
2021/07/05 14:39:14;;;;;;;1.50;0.90;;;22.10;90.40;;;;;;5038217;28;20904;-79
2021/07/05 14:47:31;;;;;;;1.50;0.90;;;22.10;90.60;;;;;;5030438;28;20466;-77
2021/07/05 14:50:01;;;;;;;1.50;0.90;;;22.20;89.10;;;;;;5032737;28;20562;-76
2021/07/05 14:52:35;;;;;;;1.50;0.93;;;22.20;88.80;;;;;;5027485;28;20548;-77
2021/07/05 14:55:18;;;;;;;1.50;0.87;;;22.40;89.70;;;;;;5024765;28;20479;-77
2021/07/05 14:58:04;;;;;;;1.50;0.90;;;22.70;88.90;;;;;;5032282;28;20565;-76
2021/07/05 15:00:52;;;;;;;1.50;0.90;;;23.10;88.50;;;;;;5022426;28;20475;-76
2021/07/05 15:03:41;;;;;;;1.50;0.90;;;23.40;88.10;;;;;;5027008;28;20563;-76
2021/07/05 15:06:17;;;;;;;1.50;0.90;;;23.60;86.90;;;;;;5021022;28;20517;-77
2021/07/05 15:08:50;;;;;;;1.40;0.90;;;23.60;85.60;;;;;;5030502;28;20469;-76
2021/07/05 15:11:17;;;;;;;1.47;0.90;;;23.60;85.70;;;;;;5028912;28;20818;-76
2021/07/05 15:13:57;;;;;;;1.50;0.90;;;23.40;85.50;;;;;;5019559;28;20773;-77
2021/07/05 15:16:31;;;;;;;1.50;0.87;;;23.20;86.70;;;;;;5038471;28;20458;-76
2021/07/05 15:19:04;;;;;;;1.43;0.90;;;23.10;87.80;;;;;;5025647;28;20492;-77
2021/07/05 15:21:48;;;;;;;1.43;0.80;;;23.10;88.10;;;;;;5030516;28;20479;-77
2021/07/05 15:27:09;;;;;;;1.50;0.90;;;23.40;87.90;;;;;;5032884;28;20451;-77
2021/07/05 15:29:40;;;;;;;1.50;0.90;;;23.30;87.60;;;;;;5014192;28;20471;-76
2021/07/05 15:32:38;;;;;;;1.40;0.90;;;23.30;88.50;;;;;;5013138;28;20910;-76
2021/07/05 15:35:07;;;;;;;1.50;0.90;;;23.60;88.70;;;;;;5022008;28;20504;-76
2021/07/05 15:37:40;;;;;;;1.50;0.90;;;23.70;86.60;;;;;;5030254;28;20684;-77
2021/07/05 15:40:14;;;;;;;1.50;0.90;;;23.70;87.00;;;;;;5029874;28;20582;-76
2021/07/05 15:42:45;;;;;;;1.50;0.90;;;23.70;86.80;;;;;;5024276;28;20490;-77
2021/07/05 15:45:16;;;;;;;1.50;0.90;;;23.70;86.60;;;;;;5025520;28;20728;-77
2021/07/05 15:47:46;;;;;;;1.40;0.80;;;23.60;87.10;;;;;;5030282;28;20440;-75
2021/07/05 15:50:20;;;;;;;1.47;0.90;;;23.60;86.90;;;;;;5025857;28;20461;-76
2021/07/05 15:52:53;;;;;;;1.50;0.93;;;23.50;87.10;;;;;;5020248;28;21156;-76
2021/07/05 15:55:21;;;;;;;1.50;0.90;;;23.40;87.00;;;;;;5020911;28;20498;-74
2021/07/05 15:57:52;;;;;;;1.47;0.80;;;23.20;87.80;;;;;;5025131;28;20866;-77
2021/07/05 16:00:33;;;;;;;1.47;0.80;;;23.10;88.10;;;;;;5019176;28;20553;-74
2021/07/05 16:03:06;;;;;;;1.50;0.90;;;23.00;87.70;;;;;;5010823;28;20550;-76
2021/07/05 16:05:41;;;;;;;1.50;0.90;;;22.80;88.10;;;;;;5010527;28;20875;-75
2021/07/05 16:08:26;;;;;;;1.50;1.00;;;22.60;89.00;;;;;;5021201;28;20917;-76
2021/07/05 16:11:06;;;;;;;1.50;0.90;;;22.50;89.30;;;;;;5025531;28;20463;-75
2021/07/05 16:13:38;;;;;;;1.50;0.90;;;22.50;90.20;;;;;;5023417;28;20459;-75
2021/07/05 16:16:08;;;;;;;1.50;0.90;;;22.40;90.90;;;;;;5019835;28;20494;-76
2021/07/05 16:18:35;;;;;;;1.50;0.90;;;22.30;92.20;;;;;;5017402;28;20955;-78
2021/07/05 16:21:29;;;;;;;1.50;0.90;;;22.20;92.30;;;;;;5021394;28;20515;-75
2021/07/05 16:24:02;;;;;;;1.50;0.90;;;22.10;92.00;;;;;;5020334;28;20541;-76
2021/07/05 16:26:29;;;;;;;1.50;0.90;;;22.00;92.00;;;;;;5023826;28;20526;-75
2021/07/05 16:29:00;;;;;;;1.50;0.90;;;22.00;92.70;;;;;;5018490;28;20460;-77
2021/07/05 16:31:38;;;;;;;1.50;0.90;;;21.90;93.10;;;;;;5019901;28;20467;-78
2021/07/05 16:34:12;;;;;;;1.50;0.90;;;21.90;93.00;;;;;;5021411;28;20494;-77
2021/07/05 16:36:41;;;;;;;1.50;0.90;;;22.00;93.00;;;;;;5024751;28;20463;-78
2021/07/05 16:39:16;;;;;;;1.50;0.90;;;21.90;92.40;;;;;;5021397;28;20539;-77